Flight Track Log - Related Links

Times and Time Zones

All times are in EDT time to prevent confusion due to time zone crossing. See the AAY816 flight status page for this flight to view local times or setup timezone preferences in your user account.


Time Position Orientation Groundspeed Altitude Reporting Facility
EDT Latitude Longitude Course Direction KTS MPH feet Rate Location/Type
Fri 11:47:48 AM 27.9333 -82.7000 North 168 193 700  Level Tampa TRACON
Fri 11:49:00 AM 27.9833 -82.6667 30° Northeast 232 267 2,700 2,136 Climbing Tampa TRACON
Fri 11:50:00 AM 28.0667 -82.6833 350° North 284 327 5,400 2,448 Climbing Tampa TRACON
Fri 11:52:21 AM 28.2519 -82.6733 North 281 323 10,900 2,119 Climbing Jacksonville Center
Fri 11:53:00 AM 28.5838 -82.6499 North  Level FlightAware Approximate
Fri 11:53:21 AM 28.3542 -82.6639 North 327 376 12,500  Level Jacksonville Center
Fri 11:54:21 AM 28.4647 -82.6564 North 368 423 15,000 2,300 Climbing Jacksonville Center
Fri 11:55:21 AM 28.5817 -82.6419 North 398 458 17,100 2,100 Climbing Jacksonville Center
Fri 11:56:21 AM 28.7006 -82.6344 North 413 475 19,200 2,000 Climbing Jacksonville Center
Fri 11:57:21 AM 28.8197 -82.6508 353° North 423 487 21,100 1,700 Climbing Jacksonville Center
Fri 11:58:21 AM 28.9408 -82.6767 349° North 428 493 22,600 1,500 Climbing Jacksonville Center
Fri 11:59:21 AM 29.0681 -82.7025 350° North 439 505 24,100 1,550 Climbing Jacksonville Center
Fri 12:00:21 PM 29.1956 -82.7333 348° North 452 520 25,700 1,700 Climbing Jacksonville Center
Fri 12:01:21 PM 29.3228 -82.7592 350° North 457 526 27,500 1,800 Climbing Jacksonville Center
Fri 12:02:21 PM 29.4461 -82.7853 350° North 457 526 29,300 1,250 Climbing Jacksonville Center
Fri 12:03:21 PM 29.5733 -82.7756 North 450 518 30,000 800 Climbing Jacksonville Center
Fri 12:04:21 PM 29.7028 -82.7611 North 455 524 30,900 900 Climbing Jacksonville Center
Fri 12:05:21 PM 29.8281 -82.7417 North 455 524 31,800 1,000 Climbing Jacksonville Center
Fri 12:06:21 PM 29.9511 -82.7272 North 455 524 32,900 600 Climbing Jacksonville Center
Fri 12:07:21 PM 30.0681 -82.7006 11° North 461 531 33,000 50 Climbing Jacksonville Center
Fri 12:08:21 PM 30.1933 -82.6858 North 461 531 33,000  Level Jacksonville Center
Fri 12:09:21 PM 30.3186 -82.6664 North 461 531 33,000  Level Jacksonville Center
Fri 12:10:21 PM 30.4439 -82.6517 North 461 531 33,000  Level Jacksonville Center
Fri 12:11:21 PM 30.5814 -82.6319 North 461 531 33,000  Level Jacksonville Center
Fri 12:12:21 PM 30.7108 -82.6172 North 461 531 33,000  Level Jacksonville Center
Fri 12:13:21 PM 30.8361 -82.5950 North 461 531 33,000  Level Jacksonville Center
Fri 12:14:21 PM 30.9614 -82.5800 North 461 531 33,000  Level Jacksonville Center
Fri 12:15:21 PM 31.0867 -82.5578 North 461 531 33,000  Level Jacksonville Center
Fri 12:16:21 PM 31.2161 -82.5428 North 461 531 33,000  Level Jacksonville Center
Fri 12:17:21 PM 31.3433 -82.5181 North 461 531 33,000  Level Jacksonville Center
Fri 12:18:21 PM 31.4581 -82.5028 North 461 531 33,000  Level Jacksonville Center
Fri 12:19:21 PM 31.5856 -82.4803 North 461 531 33,000  Level Jacksonville Center
Fri 12:20:21 PM 31.7147 -82.4653 North 461 531 33,000  Level Jacksonville Center
Fri 12:21:21 PM 31.8422 -82.4450 North 461 531 33,000  Level Jacksonville Center
Fri 12:22:29 PM 32.0031 -82.4250 North 480 552 33,000  Level Atlanta Center
Fri 12:23:29 PM 32.1303 -82.4006 North 475 547 33,000  Level Atlanta Center
Fri 12:24:29 PM 32.2553 -82.3858 North 465 535 33,000  Level Atlanta Center
Fri 12:25:29 PM 32.3822 -82.3639 North 465 535 33,000  Level Atlanta Center
Fri 12:26:29 PM 32.5094 -82.3467 North 465 535 33,000  Level Atlanta Center
Fri 12:27:29 PM 32.6383 -82.3244 North 465 535 33,000  Level Atlanta Center
Fri 12:28:29 PM 32.7656 -82.3097 North 465 535 33,000  Level Atlanta Center
Fri 12:29:29 PM 32.8925 -82.2872 North 465 535 33,000  Level Atlanta Center
Fri 12:30:29 PM 33.0156 -82.2725 North 459 528 33,000  Level Atlanta Center
Fri 12:31:29 PM 33.1425 -82.2475 North 453 521 33,000  Level Atlanta Center
Fri 12:32:29 PM 33.2653 -82.2303 North 448 516 33,000  Level Atlanta Center
Fri 12:33:29 PM 33.3800 -82.2103 North 448 516 33,000  Level Atlanta Center
Fri 12:34:29 PM 33.5050 -82.1953 North 448 516 33,000  Level Atlanta Center
Fri 12:35:29 PM 33.6275 -82.1678 11° North 448 516 33,000  Level Atlanta Center
Fri 12:36:29 PM 33.7547 -82.1525 North 448 516 33,000  Level Atlanta Center
Fri 12:37:29 PM 33.8817 -82.1269 North 448 516 33,000  Level Atlanta Center
Fri 12:38:29 PM 34.0086 -82.1092 North 448 516 33,000  Level Atlanta Center
Fri 12:39:29 PM 34.1336 -82.0839 10° North 454 522 33,000  Level Atlanta Center
Fri 12:40:29 PM 34.2731 -82.0656 North 461 531 33,000  Level Atlanta Center
Fri 12:41:29 PM 34.4000 -82.0372 10° North 461 531 33,000  Level Atlanta Center
Fri 12:42:29 PM 34.5289 -82.0192 North 461 531 33,000  Level Atlanta Center
Fri 12:43:29 PM 34.6581 -81.9933 North 461 531 33,000  Level Atlanta Center
Fri 12:44:29 PM 34.7828 -81.9750 North 461 531 33,000  Level Atlanta Center
Fri 12:45:29 PM 34.9097 -81.9517 North 461 531 33,000  Level Atlanta Center
Fri 12:46:29 PM 35.0347 -81.9358 North 455 524 33,000  Level Atlanta Center
Fri 12:47:29 PM 35.1597 -81.9303 North 450 518 33,000  Level Atlanta Center
Fri 12:48:29 PM 35.2847 -81.9169 North 450 518 33,000  Level Atlanta Center
Fri 12:49:29 PM 35.3850 -81.9194 359° North 445 512 33,000  Level Atlanta Center
Fri 12:50:29 PM 35.5183 -81.9083 North 439 505 33,000  Level Atlanta Center
Fri 12:51:29 PM 35.6433 -81.9050 North 439 505 33,000 -300 Level Atlanta Center
Fri 12:52:29 PM 35.7642 -81.8967 North 439 505 32,400 -800 Descending Atlanta Center
Fri 12:53:29 PM 35.8894 -81.8933 North 439 505 31,400 -950 Descending Atlanta Center
Fri 12:54:29 PM 36.0144 -81.8850 North 439 505 30,500 -950 Descending Atlanta Center
Fri 12:55:29 PM 36.1353 -81.8817 North 434 499 29,500 -1,000 Descending Atlanta Center
Fri 12:56:29 PM 36.2561 -81.8733 North 434 499 28,500 -1,051 Descending Atlanta Center
Fri 12:58:26 PM 36.4972 -81.8625 North 433 498 26,400 -1,039 Descending Indianapolis Center
Fri 12:59:28 PM 36.6072 -81.8986 345° North 416 479 25,400 -968 Descending Indianapolis Center
Fri 01:00:30 PM 36.7150 -81.9378 344° North 410 472 24,400 -677 Descending Indianapolis Center
Fri 01:01:32 PM 36.8231 -81.9767 344° North 404 465 24,000 -194 Descending Indianapolis Center
Fri 01:02:34 PM 36.9467 -82.0231 343° North 403 464 24,000  Level Indianapolis Center
Fri 01:03:36 PM 37.0547 -82.0622 344° North 402 463 24,000  Level Indianapolis Center
Fri 01:04:38 PM 37.1608 -82.1028 343° North 402 463 24,000  Level Indianapolis Center
Fri 01:05:40 PM 37.2678 -82.1431 343° North 402 463 24,000 -823 Level Indianapolis Center
Fri 01:06:42 PM 37.3700 -82.1822 343° North 392 451 22,300 -2,274 Descending Indianapolis Center
Fri 01:07:44 PM 37.4850 -82.2256 343° North 374 430 19,300 -2,419 Descending Indianapolis Center
Fri 01:08:46 PM 37.5847 -82.2614 344° North 373 429 17,300 -2,032 Descending Indianapolis Center
Fri 01:09:48 PM 37.6808 -82.2967 344° North 365 420 15,100 -2,129 Descending Indianapolis Center
Fri 01:10:50 PM 37.7725 -82.3350 342° North 353 406 12,900 -1,935 Descending Indianapolis Center
Fri 01:11:52 PM 37.8642 -82.3642 346° North 346 398 11,100 -1,452 Descending Indianapolis Center
Fri 01:12:54 PM 37.9592 -82.4036 342° North 316 364 9,900 -1,355 Descending Indianapolis Center
Fri 01:13:56 PM 38.0333 -82.4317 343° North 290 334 8,300 -1,355 Descending Indianapolis Center
Fri 01:14:58 PM 38.1075 -82.4603 343° North 280 322 7,100 -1,161 Descending Indianapolis Center
Fri 01:16:00 PM 38.1814 -82.4878 344° North 280 322 5,900 -1,306 Descending Indianapolis Center
Fri 01:17:02 PM 38.2522 -82.5197 340° North 276 318 4,400 -1,210 Descending Indianapolis Center
Fri 01:18:04 PM 38.3053 -82.6053 308° West 265 305 3,400 -774 Descending Indianapolis Center
Fri 01:19:06 PM 38.3350 -82.6769 298° West 240 276 2,800 -484 Descending Indianapolis Center
Fri 01:20:08 PM 38.3814 -82.6533 22° Northeast 191 220 2,400 -629 Descending Indianapolis Center
Fri 01:21:10 PM 38.3800 -82.6000 92° East 162 186 1,500 -871 Descending Indianapolis Center
Fri 01:23:00 PM 38.3685 -82.5604 90° East  Level Estimated

Login

Don't have an account? Register now (free) for customized features, flight alerts, and more!